Time;durP1;ratioP1;P1;durP2;ratioP2;P2;SDS_P1;SDS_P2;PMS_P1;PMS_P2;Temp;Humidity;BMP_temperature;BMP_pressure;BME280_temperature;BME280_humidity;BME280_pressure;Samples;Min_cycle;Max_cycle;Signal;HPM_P1;HPM_P2
2021/10/18 00:01:43;;;;;;;11.60;9.30;;;11.70;99.90;;;;;;5012497;28;20199;-89
2021/10/18 00:04:10;;;;;;;14.70;10.27;;;11.70;99.90;;;;;;5016325;28;20249;-88
2021/10/18 00:06:38;;;;;;;12.03;9.07;;;11.70;99.90;;;;;;5031440;28;20198;-88
2021/10/18 00:09:05;;;;;;;11.50;9.27;;;11.70;99.90;;;;;;5031473;28;20728;-89
2021/10/18 00:11:32;;;;;;;14.00;9.60;;;11.70;99.90;;;;;;5031477;28;20234;-88
2021/10/18 00:13:59;;;;;;;14.57;10.23;;;11.70;99.90;;;;;;5031704;28;20573;-86
2021/10/18 00:16:26;;;;;;;15.27;10.27;;;11.70;99.90;;;;;;5031686;28;20201;-85
2021/10/18 00:18:53;;;;;;;14.50;11.07;;;11.70;99.90;;;;;;5030753;28;20495;-85
2021/10/18 00:21:20;;;;;;;11.77;9.40;;;11.70;99.90;;;;;;5031697;28;20194;-87
2021/10/18 00:23:49;;;;;;;13.30;9.10;;;11.70;99.90;;;;;;5031889;28;20222;-88
2021/10/18 00:26:16;;;;;;;13.57;10.17;;;11.70;99.90;;;;;;5031260;28;20202;-88
2021/10/18 00:28:42;;;;;;;14.07;10.30;;;11.70;99.90;;;;;;5028096;28;20662;-84
2021/10/18 00:31:09;;;;;;;14.43;9.97;;;11.70;99.90;;;;;;5028386;28;20249;-88
2021/10/18 00:33:36;;;;;;;15.97;11.07;;;11.70;99.90;;;;;;5031908;28;20277;-88
2021/10/18 00:36:03;;;;;;;11.87;9.30;;;11.70;99.90;;;;;;5027801;28;20199;-89
2021/10/18 00:38:30;;;;;;;16.47;10.30;;;11.70;99.90;;;;;;5011372;28;20208;-89
2021/10/18 00:40:58;;;;;;;16.20;10.07;;;11.70;99.90;;;;;;5022344;28;20206;-88
2021/10/18 00:43:25;;;;;;;16.93;10.80;;;11.70;99.90;;;;;;5031587;28;20298;-88
2021/10/18 00:45:52;;;;;;;16.17;10.40;;;11.70;99.90;;;;;;5031214;28;20192;-87
2021/10/18 00:48:19;;;;;;;16.53;11.17;;;11.70;99.90;;;;;;5030426;28;20219;-87
2021/10/18 00:50:47;;;;;;;12.77;10.40;;;11.70;99.90;;;;;;5030846;28;20222;-87
2021/10/18 00:53:15;;;;;;;13.67;10.27;;;11.70;99.90;;;;;;5031043;28;20583;-87
2021/10/18 00:55:42;;;;;;;13.33;10.20;;;11.70;99.90;;;;;;5030961;28;20206;-87
2021/10/18 00:58:10;;;;;;;14.57;10.40;;;11.70;99.90;;;;;;5031254;28;20201;-88
2021/10/18 01:00:37;;;;;;;14.10;10.67;;;11.70;99.90;;;;;;5031173;28;20512;-87
2021/10/18 01:03:04;;;;;;;16.50;10.47;;;11.70;99.90;;;;;;5030896;28;20187;-88
2021/10/18 01:05:34;;;;;;;15.30;9.80;;;11.70;99.90;;;;;;5031230;28;20238;-88
2021/10/18 01:08:01;;;;;;;15.43;10.30;;;11.70;99.90;;;;;;5030856;28;20207;-86
2021/10/18 01:10:29;;;;;;;11.90;10.23;;;11.60;99.90;;;;;;5031383;28;20492;-86
2021/10/18 01:12:55;;;;;;;11.77;9.37;;;11.60;99.90;;;;;;5031435;28;20199;-88
2021/10/18 01:15:24;;;;;;;12.70;9.93;;;11.60;99.90;;;;;;5031223;28;20214;-88
2021/10/18 01:17:51;;;;;;;14.97;10.43;;;11.60;99.90;;;;;;5018098;28;20217;-88
2021/10/18 01:20:29;;;;;;;16.77;9.97;;;11.60;99.90;;;;;;5011253;28;20204;-88
2021/10/18 01:22:56;;;;;;;14.73;10.63;;;11.60;99.90;;;;;;5011666;28;20195;-89
2021/10/18 01:25:23;;;;;;;13.03;10.37;;;11.60;99.90;;;;;;5011676;28;20215;-88
2021/10/18 01:27:50;;;;;;;14.73;10.90;;;11.60;99.90;;;;;;5011046;28;20211;-86
2021/10/18 01:30:17;;;;;;;14.50;11.30;;;11.60;99.90;;;;;;5010500;28;20235;-88
2021/10/18 01:32:45;;;;;;;14.87;11.37;;;11.60;99.90;;;;;;5019752;28;20217;-89
2021/10/18 01:35:12;;;;;;;15.60;11.20;;;11.60;99.90;;;;;;5030970;28;20207;-89
2021/10/18 01:37:40;;;;;;;14.60;10.20;;;11.60;99.90;;;;;;5031093;28;20213;-89
2021/10/18 01:40:08;;;;;;;13.27;10.43;;;11.60;99.90;;;;;;5030580;28;20513;-90
2021/10/18 01:42:35;;;;;;;11.43;9.60;;;11.60;99.90;;;;;;5031147;28;20215;-89
2021/10/18 01:45:02;;;;;;;13.97;10.07;;;11.60;99.90;;;;;;5030922;28;20206;-89
2021/10/18 01:47:29;;;;;;;16.63;11.60;;;11.60;99.90;;;;;;5031811;28;20206;-89
2021/10/18 01:49:56;;;;;;;13.90;10.40;;;11.60;99.90;;;;;;5033841;28;20214;-86
2021/10/18 01:52:22;;;;;;;16.60;11.13;;;11.60;99.90;;;;;;5034259;28;20218;-87
2021/10/18 01:54:51;;;;;;;13.30;10.57;;;11.60;99.90;;;;;;5033502;28;20612;-89
2021/10/18 01:57:18;;;;;;;11.70;9.77;;;11.50;99.90;;;;;;5029044;28;20214;-88
2021/10/18 01:59:45;;;;;;;14.03;10.80;;;11.60;99.90;;;;;;5031600;28;20199;-87
2021/10/18 02:02:12;;;;;;;11.73;9.90;;;11.60;99.90;;;;;;5032905;28;20206;-88
2021/10/18 02:04:39;;;;;;;15.07;10.47;;;11.50;99.90;;;;;;5032261;28;20242;-89
2021/10/18 02:07:06;;;;;;;20.33;11.03;;;11.50;99.90;;;;;;5030821;28;20210;-88
2021/10/18 02:09:33;;;;;;;14.27;10.53;;;11.50;99.90;;;;;;5033974;28;20202;-88
2021/10/18 02:12:01;;;;;;;13.63;10.60;;;11.60;99.90;;;;;;5034353;28;20222;-87
2021/10/18 02:14:28;;;;;;;17.63;11.10;;;11.60;99.90;;;;;;5034009;28;20237;-88
2021/10/18 02:16:54;;;;;;;13.80;10.90;;;11.60;99.90;;;;;;5033113;28;20213;-88
2021/10/18 02:19:21;;;;;;;15.33;10.17;;;11.50;99.90;;;;;;5034442;28;20790;-89
2021/10/18 02:21:48;;;;;;;13.40;10.13;;;11.50;99.90;;;;;;5034416;28;20202;-88
2021/10/18 02:24:15;;;;;;;17.30;12.23;;;11.60;99.90;;;;;;5024482;28;20211;-89
2021/10/18 02:26:42;;;;;;;15.33;9.80;;;11.50;99.90;;;;;;5012445;28;20214;-88
2021/10/18 02:29:11;;;;;;;15.67;11.33;;;11.50;99.90;;;;;;5011991;28;20208;-88
2021/10/18 02:31:38;;;;;;;14.00;10.43;;;11.50;99.90;;;;;;5012941;28;20545;-86
2021/10/18 02:34:05;;;;;;;12.47;10.07;;;11.50;99.90;;;;;;5024214;28;20667;-87
2021/10/18 02:36:32;;;;;;;12.73;10.07;;;11.50;99.90;;;;;;5031704;28;20205;-88
2021/10/18 02:38:59;;;;;;;16.77;10.53;;;11.50;99.90;;;;;;5032072;28;20209;-89
2021/10/18 02:41:26;;;;;;;11.53;9.83;;;11.50;99.90;;;;;;5033516;28;20198;-87
2021/10/18 02:43:53;;;;;;;12.47;10.67;;;11.50;99.90;;;;;;5032272;28;20223;-88
2021/10/18 02:46:21;;;;;;;14.80;10.93;;;11.50;99.90;;;;;;5033537;28;20213;-85
2021/10/18 02:48:48;;;;;;;13.23;10.57;;;11.50;99.90;;;;;;5033214;28;20207;-88
2021/10/18 02:51:15;;;;;;;18.63;11.10;;;11.50;99.90;;;;;;5032886;28;20229;-88
2021/10/18 02:53:42;;;;;;;17.13;10.90;;;11.50;99.90;;;;;;5032658;28;20199;-87
2021/10/18 02:56:09;;;;;;;17.80;11.80;;;11.50;99.90;;;;;;5033070;28;20634;-86
2021/10/18 02:58:36;;;;;;;13.63;10.30;;;11.50;99.90;;;;;;5033290;28;20232;-88
2021/10/18 03:01:03;;;;;;;13.00;11.53;;;11.40;99.90;;;;;;5033089;28;20203;-88
2021/10/18 03:03:31;;;;;;;13.53;10.60;;;11.40;99.90;;;;;;5033102;28;20214;-90
2021/10/18 03:05:58;;;;;;;23.27;12.47;;;11.40;99.90;;;;;;5032383;28;20250;-89
2021/10/18 03:08:25;;;;;;;15.40;11.53;;;11.40;99.90;;;;;;5032967;28;20219;-90
2021/10/18 03:10:52;;;;;;;16.53;12.03;;;11.40;99.90;;;;;;5032790;28;20195;-89
2021/10/18 03:13:20;;;;;;;16.10;11.70;;;11.30;99.90;;;;;;5033026;28;20226;-85
2021/10/18 03:15:47;;;;;;;14.30;10.83;;;11.30;99.90;;;;;;5033466;28;20289;-87
2021/10/18 03:18:14;;;;;;;17.63;12.30;;;11.30;99.90;;;;;;5032071;28;20606;-88
2021/10/18 03:20:43;;;;;;;12.30;9.83;;;11.30;99.90;;;;;;5032158;28;20210;-86
2021/10/18 03:23:09;;;;;;;18.63;12.00;;;11.30;99.90;;;;;;5029859;28;20706;-89
2021/10/18 03:25:36;;;;;;;13.30;11.30;;;11.30;99.90;;;;;;5029605;28;20214;-89
2021/10/18 03:28:04;;;;;;;12.60;10.40;;;11.20;99.90;;;;;;5032389;28;20199;-89
2021/10/18 03:30:31;;;;;;;14.43;11.60;;;11.20;99.90;;;;;;5032801;28;20202;-85
2021/10/18 03:32:59;;;;;;;15.47;10.90;;;11.20;99.90;;;;;;5031895;28;20231;-86
2021/10/18 03:35:26;;;;;;;13.10;10.77;;;11.10;99.90;;;;;;5028814;28;20213;-89
2021/10/18 03:37:55;;;;;;;13.03;10.30;;;11.10;99.90;;;;;;5031728;28;20210;-85
2021/10/18 03:40:22;;;;;;;14.90;10.97;;;11.00;99.90;;;;;;5031957;28;20200;-88
2021/10/18 03:42:49;;;;;;;15.30;11.57;;;11.00;99.90;;;;;;5032173;28;20214;-87
2021/10/18 03:45:16;;;;;;;14.43;10.93;;;11.00;99.90;;;;;;5032345;28;20210;-87
2021/10/18 03:47:43;;;;;;;15.13;11.37;;;10.90;99.90;;;;;;5032249;28;20187;-86
2021/10/18 03:50:11;;;;;;;18.10;11.77;;;10.90;99.90;;;;;;5028347;28;20206;-89
2021/10/18 03:52:37;;;;;;;17.40;11.10;;;10.90;99.90;;;;;;5029070;28;20280;-89
2021/10/18 03:55:07;;;;;;;13.63;11.30;;;10.90;99.90;;;;;;5029431;28;20199;-86
2021/10/18 03:57:33;;;;;;;16.37;11.93;;;10.90;99.90;;;;;;5032535;28;20191;-86
2021/10/18 04:00:00;;;;;;;13.57;11.13;;;10.80;99.90;;;;;;5031657;28;20233;-85
2021/10/18 04:02:27;;;;;;;14.40;11.30;;;10.80;99.90;;;;;;5031212;28;20221;-87
2021/10/18 04:04:54;;;;;;;13.60;11.00;;;10.80;99.90;;;;;;5030754;28;20235;-85
2021/10/18 04:07:21;;;;;;;13.83;10.83;;;10.70;99.90;;;;;;5031264;28;20485;-87
2021/10/18 04:09:48;;;;;;;12.67;10.73;;;10.70;99.90;;;;;;5031277;28;20205;-86
2021/10/18 04:12:16;;;;;;;16.00;11.60;;;10.70;99.90;;;;;;5031471;28;20233;-85
2021/10/18 04:14:43;;;;;;;14.67;11.63;;;10.60;99.90;;;;;;5031757;28;20226;-86
2021/10/18 04:17:10;;;;;;;15.83;11.73;;;10.60;99.90;;;;;;5031424;28;20634;-87
2021/10/18 04:19:37;;;;;;;18.50;12.63;;;10.60;99.90;;;;;;5030984;28;20219;-84
2021/10/18 04:22:04;;;;;;;14.83;11.83;;;10.60;99.90;;;;;;5030930;28;20209;-85
2021/10/18 04:24:31;;;;;;;17.40;12.37;;;10.60;99.90;;;;;;5030668;28;20289;-85
2021/10/18 04:26:58;;;;;;;16.60;12.80;;;10.50;99.90;;;;;;5018398;28;20230;-85
2021/10/18 04:29:26;;;;;;;15.87;12.60;;;10.50;99.90;;;;;;5007853;28;20203;-86
2021/10/18 04:31:57;;;;;;;14.07;12.13;;;10.50;99.90;;;;;;5008855;28;20296;-84
2021/10/18 04:34:25;;;;;;;17.57;13.63;;;10.50;99.90;;;;;;5027620;28;20206;-87
2021/10/18 04:36:52;;;;;;;18.33;13.37;;;10.40;99.90;;;;;;5031362;28;20198;-86
2021/10/18 04:39:19;;;;;;;18.10;14.63;;;10.40;99.90;;;;;;5029678;28;20217;-86
2021/10/18 04:41:46;;;;;;;16.43;12.43;;;10.40;99.90;;;;;;5030549;28;20195;-85
2021/10/18 04:44:13;;;;;;;21.00;14.23;;;10.40;99.90;;;;;;5031046;28;20214;-85
2021/10/18 04:46:41;;;;;;;17.03;14.07;;;10.30;99.90;;;;;;5031143;28;20211;-87
2021/10/18 04:49:08;;;;;;;17.03;12.80;;;10.30;99.90;;;;;;5030277;28;20595;-86
2021/10/18 04:51:35;;;;;;;16.87;13.30;;;10.30;99.90;;;;;;5026338;28;20218;-88
2021/10/18 04:54:02;;;;;;;15.67;13.50;;;10.30;99.90;;;;;;5030916;28;20214;-89
2021/10/18 04:56:29;;;;;;;16.47;13.90;;;10.20;99.90;;;;;;5030882;28;20221;-87
2021/10/18 04:58:56;;;;;;;20.17;14.70;;;10.20;99.90;;;;;;5030639;28;20210;-89
2021/10/18 05:01:23;;;;;;;17.67;14.67;;;10.20;99.90;;;;;;5031353;28;20198;-88
2021/10/18 05:03:51;;;;;;;20.87;15.97;;;10.20;99.90;;;;;;5029865;28;20195;-86
2021/10/18 05:06:18;;;;;;;20.00;14.30;;;10.10;99.90;;;;;;5027684;28;20510;-88
2021/10/18 05:08:44;;;;;;;22.93;16.70;;;10.10;99.90;;;;;;5030862;28;20603;-88
2021/10/18 05:11:11;;;;;;;20.33;15.67;;;10.10;99.90;;;;;;5031403;28;20201;-88
2021/10/18 05:13:38;;;;;;;19.87;15.03;;;10.00;99.90;;;;;;5031085;28;20504;-87
2021/10/18 05:16:05;;;;;;;23.03;15.40;;;10.00;99.90;;;;;;5031175;28;20207;-87
2021/10/18 05:18:32;;;;;;;20.67;16.47;;;10.00;99.90;;;;;;5031079;28;20202;-87
2021/10/18 05:21:05;;;;;;;19.30;15.40;;;10.00;99.90;;;;;;5030557;28;20487;-88
2021/10/18 05:23:32;;;;;;;24.77;16.13;;;9.90;99.90;;;;;;5033338;28;20210;-89
2021/10/18 05:25:59;;;;;;;19.27;16.27;;;9.90;99.90;;;;;;5034520;28;20206;-89
2021/10/18 05:28:26;;;;;;;19.00;16.10;;;9.90;99.90;;;;;;5035038;28;20210;-89
2021/10/18 05:30:52;;;;;;;23.53;16.27;;;9.90;99.90;;;;;;5034439;28;20214;-88
2021/10/18 05:33:19;;;;;;;19.53;16.90;;;9.90;99.90;;;;;;5034374;28;20530;-89
2021/10/18 05:35:47;;;;;;;21.60;16.57;;;9.90;99.90;;;;;;5034694;28;20199;-89
2021/10/18 05:38:17;;;;;;;22.50;15.47;;;9.80;99.90;;;;;;5020967;28;20211;-88
2021/10/18 05:40:44;;;;;;;26.40;18.17;;;9.80;99.90;;;;;;5014310;28;20211;-89
2021/10/18 05:43:11;;;;;;;23.17;17.30;;;9.80;99.90;;;;;;5015527;28;20572;-86
2021/10/18 05:45:38;;;;;;;28.30;19.13;;;9.80;99.90;;;;;;5014880;28;20207;-87
2021/10/18 05:48:05;;;;;;;21.33;16.73;;;9.80;99.90;;;;;;5013291;28;20203;-89
2021/10/18 05:50:37;;;;;;;23.03;17.77;;;9.80;99.90;;;;;;5031658;28;20238;-87
2021/10/18 05:53:04;;;;;;;24.47;18.17;;;9.80;99.90;;;;;;5034454;28;20219;-87
2021/10/18 05:55:32;;;;;;;21.67;17.43;;;9.80;99.90;;;;;;5034423;28;20213;-86
2021/10/18 05:58:00;;;;;;;23.63;18.47;;;9.70;99.90;;;;;;5034310;28;20210;-87
2021/10/18 06:00:27;;;;;;;24.87;17.87;;;9.70;99.90;;;;;;5033763;28;20213;-87
2021/10/18 06:02:55;;;;;;;24.17;18.40;;;9.70;99.90;;;;;;5033932;28;20207;-89
2021/10/18 06:05:23;;;;;;;26.40;19.80;;;9.70;99.90;;;;;;5033793;28;20242;-90
2021/10/18 06:07:51;;;;;;;27.43;19.90;;;9.70;99.90;;;;;;5033685;28;20519;-89
2021/10/18 06:10:17;;;;;;;27.20;19.47;;;9.70;99.90;;;;;;5033721;28;20209;-88
2021/10/18 06:12:46;;;;;;;25.40;18.07;;;9.70;99.90;;;;;;5032992;28;20238;-87
2021/10/18 06:15:13;;;;;;;25.70;19.27;;;9.70;99.90;;;;;;5032930;28;20245;-88
2021/10/18 06:17:41;;;;;;;29.57;19.57;;;9.70;99.90;;;;;;5031147;28;20211;-89
2021/10/18 06:20:09;;;;;;;27.47;18.80;;;9.70;99.90;;;;;;5030082;28;20268;-88
2021/10/18 06:22:36;;;;;;;25.70;18.77;;;9.70;99.90;;;;;;5032806;28;20206;-87
2021/10/18 06:25:03;;;;;;;27.47;19.83;;;9.70;99.90;;;;;;5033226;28;20214;-87
2021/10/18 06:27:30;;;;;;;27.37;19.70;;;9.70;99.90;;;;;;5033915;28;20591;-87
2021/10/18 06:29:58;;;;;;;27.50;19.07;;;9.70;99.90;;;;;;5033205;28;20413;-87
2021/10/18 06:32:25;;;;;;;25.03;18.10;;;9.70;99.90;;;;;;5033502;28;20248;-89
2021/10/18 06:34:53;;;;;;;29.07;19.87;;;9.70;99.90;;;;;;5031040;28;20552;-89
2021/10/18 06:37:20;;;;;;;25.40;19.93;;;9.70;99.90;;;;;;5032511;28;20206;-88
2021/10/18 06:39:46;;;;;;;23.73;20.00;;;9.70;99.90;;;;;;5030594;28;20206;-88
2021/10/18 06:42:13;;;;;;;28.17;19.80;;;9.70;99.90;;;;;;5033888;28;20198;-87
2021/10/18 06:44:42;;;;;;;30.03;18.90;;;9.70;99.90;;;;;;5034023;28;20195;-86
2021/10/18 06:47:17;;;;;;;26.83;18.53;;;9.70;99.90;;;;;;5022822;28;20820;-88
2021/10/18 06:49:43;;;;;;;29.20;21.17;;;9.70;99.90;;;;;;5013864;28;20237;-91
2021/10/18 06:52:10;;;;;;;31.57;21.43;;;9.70;99.90;;;;;;5012998;28;20227;-90
2021/10/18 06:54:39;;;;;;;25.37;18.33;;;9.80;99.90;;;;;;5013276;28;20203;-88
2021/10/18 06:57:06;;;;;;;26.30;20.03;;;9.80;99.90;;;;;;5018349;28;20215;-90
2021/10/18 06:59:33;;;;;;;26.13;19.37;;;9.80;99.90;;;;;;5022368;28;20238;-90
2021/10/18 07:02:25;;;;;;;25.50;19.30;;;9.80;99.90;;;;;;5014772;28;20914;-88
2021/10/18 07:04:52;;;;;;;24.17;19.27;;;9.80;99.90;;;;;;5010568;28;20528;-88
2021/10/18 07:07:19;;;;;;;28.03;19.73;;;9.80;99.90;;;;;;5028753;28;20237;-89
2021/10/18 07:09:46;;;;;;;24.57;19.90;;;9.90;99.90;;;;;;5032919;28;20229;-90
2021/10/18 07:12:13;;;;;;;25.87;19.60;;;9.90;99.90;;;;;;5031871;28;20234;-87
2021/10/18 07:14:40;;;;;;;27.87;20.63;;;9.90;99.90;;;;;;5032046;28;20215;-85
2021/10/18 07:17:08;;;;;;;28.10;21.50;;;9.90;99.90;;;;;;5032836;28;20202;-88
2021/10/18 07:19:37;;;;;;;28.33;20.37;;;9.90;99.90;;;;;;5032237;28;20234;-87
2021/10/18 07:22:04;;;;;;;27.83;20.93;;;9.90;99.90;;;;;;5032125;28;20195;-88
2021/10/18 07:24:30;;;;;;;25.77;20.10;;;10.00;99.90;;;;;;5032758;28;20893;-87
2021/10/18 07:26:57;;;;;;;26.80;21.13;;;10.00;99.90;;;;;;5032120;28;20206;-87
2021/10/18 07:29:24;;;;;;;29.03;20.33;;;10.00;99.90;;;;;;5032405;28;20198;-85
2021/10/18 07:31:51;;;;;;;28.03;20.87;;;10.10;99.90;;;;;;5031477;28;20545;-86
2021/10/18 07:34:18;;;;;;;26.47;19.47;;;10.00;99.90;;;;;;5031453;28;20244;-90
2021/10/18 07:36:49;;;;;;;24.70;20.17;;;10.10;99.90;;;;;;5031195;28;20206;-87
2021/10/18 07:39:17;;;;;;;28.80;21.67;;;10.20;99.90;;;;;;5032115;28;20202;-87
2021/10/18 07:41:44;;;;;;;25.67;19.47;;;10.20;99.90;;;;;;5031905;28;20209;-87
2021/10/18 07:44:11;;;;;;;28.20;20.03;;;10.20;99.90;;;;;;5030644;28;20225;-88
2021/10/18 07:46:38;;;;;;;28.10;20.57;;;10.30;99.90;;;;;;5011866;28;20210;-88
2021/10/18 07:49:05;;;;;;;23.57;20.03;;;10.30;99.90;;;;;;5017682;28;20207;-90
2021/10/18 07:51:32;;;;;;;31.37;20.43;;;10.40;99.90;;;;;;5038397;28;20203;-87
2021/10/18 07:54:02;;;;;;;26.50;19.67;;;10.40;99.90;;;;;;5037598;28;20218;-86
2021/10/18 07:56:28;;;;;;;25.83;19.03;;;10.50;99.90;;;;;;5031559;28;20221;-86
2021/10/18 07:58:55;;;;;;;29.20;19.67;;;10.50;99.90;;;;;;5026578;28;20217;-87
2021/10/18 08:01:22;;;;;;;26.43;18.73;;;10.50;99.90;;;;;;5022518;28;20626;-87
2021/10/18 08:03:49;;;;;;;27.07;19.63;;;10.60;99.90;;;;;;5022223;28;20254;-90
2021/10/18 08:06:16;;;;;;;28.57;20.27;;;10.60;99.90;;;;;;5012503;28;20932;-88
2021/10/18 08:08:46;;;;;;;25.67;19.07;;;10.70;99.90;;;;;;5019576;28;20214;-92
2021/10/18 08:11:14;;;;;;;24.03;18.57;;;10.70;99.90;;;;;;5017237;28;20286;-91
2021/10/18 08:13:41;;;;;;;29.30;18.87;;;10.80;99.90;;;;;;5016258;28;20305;-95
2021/10/18 08:16:08;;;;;;;28.40;19.27;;;10.80;99.90;;;;;;5024374;28;20206;-90
2021/10/18 08:18:37;;;;;;;28.57;19.97;;;10.90;99.90;;;;;;5014960;28;20199;-91
2021/10/18 08:21:05;;;;;;;28.53;19.80;;;10.80;99.90;;;;;;5019836;28;20203;-91
2021/10/18 08:23:33;;;;;;;30.57;19.37;;;10.90;99.90;;;;;;5014898;28;20214;-88
2021/10/18 08:26:00;;;;;;;24.60;18.50;;;10.90;99.90;;;;;;5024396;28;20624;-86
2021/10/18 08:28:28;;;;;;;27.43;18.30;;;11.00;99.90;;;;;;5019347;28;20291;-91
2021/10/18 08:30:56;;;;;;;23.50;18.57;;;11.00;99.90;;;;;;5021624;28;20214;-92
2021/10/18 08:33:23;;;;;;;23.87;17.17;;;11.00;99.90;;;;;;5014363;28;20305;-91
2021/10/18 08:35:50;;;;;;;23.90;18.67;;;11.00;99.90;;;;;;5020031;28;20728;-91
2021/10/18 08:41:14;;;;;;;23.47;18.27;;;11.10;99.90;;;;;;5021906;28;20797;-88
2021/10/18 08:46:28;;;;;;;27.77;18.83;;;11.30;99.90;;;;;;5016217;28;20218;-86
2021/10/18 08:48:57;;;;;;;28.43;19.43;;;11.30;99.90;;;;;;5021195;28;20207;-87
2021/10/18 08:51:25;;;;;;;24.33;19.17;;;11.40;99.90;;;;;;5017239;28;20246;-85
2021/10/18 08:53:53;;;;;;;23.60;17.93;;;11.50;99.90;;;;;;5015180;28;20230;-87
2021/10/18 08:56:21;;;;;;;23.83;18.00;;;11.50;99.90;;;;;;5025217;28;20596;-90
2021/10/18 08:58:50;;;;;;;23.13;17.93;;;11.60;99.90;;;;;;5024107;28;20881;-88
2021/10/18 09:01:42;;;;;;;24.07;17.57;;;11.60;99.90;;;;;;5027003;28;20202;-91
2021/10/18 09:04:28;;;;;;;23.50;18.57;;;11.60;99.90;;;;;;5025767;28;20245;-89
2021/10/18 09:06:57;;;;;;;24.10;18.33;;;11.70;99.90;;;;;;5022857;28;20214;-89
2021/10/18 09:09:25;;;;;;;22.93;17.80;;;11.70;99.90;;;;;;5031849;28;20202;-88
2021/10/18 09:12:00;;;;;;;25.93;18.63;;;11.80;99.90;;;;;;5026852;28;20222;-90
2021/10/18 09:14:30;;;;;;;22.77;17.97;;;11.80;99.90;;;;;;5015343;28;20242;-87
2021/10/18 09:17:02;;;;;;;24.57;18.73;;;11.90;99.90;;;;;;5024677;28;20210;-83
2021/10/18 09:19:29;;;;;;;25.00;18.03;;;11.90;99.90;;;;;;5021127;28;20202;-91
2021/10/18 09:21:57;;;;;;;25.73;17.83;;;12.00;99.90;;;;;;5018606;28;20203;-87
2021/10/18 09:24:43;;;;;;;29.50;19.50;;;12.10;99.90;;;;;;5021955;28;20219;-86
2021/10/18 09:27:15;;;;;;;23.53;17.87;;;12.20;99.90;;;;;;5018593;28;20214;-88
2021/10/18 09:29:46;;;;;;;22.40;17.07;;;12.30;99.90;;;;;;5022036;28;20202;-89
2021/10/18 09:32:18;;;;;;;23.23;17.50;;;12.30;99.90;;;;;;5017594;28;20198;-83
2021/10/18 09:34:45;;;;;;;22.87;17.50;;;12.40;99.90;;;;;;5022222;28;20233;-89
2021/10/18 09:37:14;;;;;;;23.30;17.33;;;12.40;99.90;;;;;;5021661;28;20215;-86
2021/10/18 09:39:43;;;;;;;24.73;17.70;;;12.50;99.90;;;;;;5022144;28;20222;-89
2021/10/18 09:42:11;;;;;;;23.63;17.57;;;12.50;99.90;;;;;;5024748;28;20310;-90
2021/10/18 10:52:54;;;;;;;21.33;16.10;;;13.50;99.90;;;;;;5022272;28;20858;-87
2021/10/18 10:55:25;;;;;;;22.73;16.20;;;13.40;99.90;;;;;;5022848;28;20203;-89
2021/10/18 10:57:54;;;;;;;24.00;16.33;;;13.40;99.90;;;;;;5023712;28;20195;-89
2021/10/18 11:00:35;;;;;;;21.70;17.00;;;13.40;99.90;;;;;;5025245;28;20685;-92
2021/10/18 11:03:40;;;;;;;21.60;16.53;;;13.30;99.90;;;;;;5017509;28;20214;-89
2021/10/18 11:06:12;;;;;;;23.87;16.10;;;13.30;99.90;;;;;;5024673;28;20233;-85
2021/10/18 11:08:43;;;;;;;20.93;16.57;;;13.30;99.90;;;;;;5029581;28;20883;-85
2021/10/18 11:11:19;;;;;;;22.47;17.23;;;13.40;99.90;;;;;;5024890;28;20199;-86
2021/10/18 11:13:50;;;;;;;21.93;15.93;;;13.30;99.90;;;;;;5021216;28;20246;-86
2021/10/18 11:16:18;;;;;;;21.43;16.57;;;13.30;99.90;;;;;;5030359;28;20213;-90
2021/10/18 11:18:49;;;;;;;21.93;17.23;;;13.30;99.90;;;;;;5018194;28;20214;-91
2021/10/18 11:21:18;;;;;;;22.97;16.20;;;13.50;99.90;;;;;;5016177;28;20250;-91
2021/10/18 11:24:05;;;;;;;22.67;16.23;;;13.50;99.90;;;;;;5027998;28;20921;-90
2021/10/18 11:26:36;;;;;;;21.73;16.47;;;13.50;99.90;;;;;;5021910;28;20221;-89
2021/10/18 11:29:06;;;;;;;21.33;16.40;;;13.60;99.90;;;;;;5021156;28;20267;-89
2021/10/18 11:31:34;;;;;;;19.23;16.00;;;13.60;99.90;;;;;;5014416;28;20207;-90
2021/10/18 11:34:09;;;;;;;23.77;15.47;;;13.60;99.90;;;;;;5015328;28;20235;-90
2021/10/18 11:36:37;;;;;;;20.97;16.37;;;13.80;99.90;;;;;;5018795;28;20211;-89
2021/10/18 11:39:18;;;;;;;21.77;16.73;;;13.70;99.90;;;;;;5018059;28;20210;-88
2021/10/18 11:42:13;;;;;;;23.60;15.77;;;13.70;99.90;;;;;;5013989;28;20234;-90
2021/10/18 11:44:47;;;;;;;23.67;16.60;;;13.70;99.90;;;;;;5001460;28;20226;-91
2021/10/18 11:47:28;;;;;;;23.73;15.97;;;13.70;99.90;;;;;;5019563;28;20199;-88
2021/10/18 11:50:14;;;;;;;22.23;15.67;;;13.70;99.90;;;;;;5023791;28;20523;-90
2021/10/18 11:52:46;;;;;;;21.57;15.00;;;13.80;99.90;;;;;;5002455;28;20238;-88
2021/10/18 11:55:16;;;;;;;19.83;15.23;;;13.90;99.90;;;;;;5018895;28;20234;-89
2021/10/18 11:57:45;;;;;;;21.90;16.03;;;14.00;99.90;;;;;;5015697;28;20199;-89
2021/10/18 12:00:14;;;;;;;22.00;16.77;;;14.10;99.90;;;;;;5019561;28;20219;-87
2021/10/18 12:02:45;;;;;;;22.57;17.13;;;14.10;99.90;;;;;;5017605;28;20843;-89
2021/10/18 12:05:12;;;;;;;18.13;14.80;;;14.10;99.90;;;;;;5017028;28;20246;-89
2021/10/18 12:07:44;;;;;;;21.30;16.10;;;14.20;99.90;;;;;;5019643;28;20302;-88
2021/10/18 12:10:25;;;;;;;20.93;15.37;;;14.30;99.90;;;;;;5018718;28;20222;-85
2021/10/18 12:13:11;;;;;;;20.17;15.40;;;14.40;99.90;;;;;;5030560;28;20217;-86
2021/10/18 12:15:44;;;;;;;17.20;14.63;;;14.50;99.90;;;;;;5027209;28;20210;-87
2021/10/18 12:18:11;;;;;;;16.13;13.70;;;14.40;99.90;;;;;;5028378;28;20205;-87
2021/10/18 12:20:42;;;;;;;21.67;16.00;;;14.50;99.90;;;;;;5018534;28;20214;-86
2021/10/18 12:23:16;;;;;;;16.67;14.03;;;14.50;99.90;;;;;;5023523;28;20202;-87
2021/10/18 12:25:53;;;;;;;20.70;15.67;;;14.60;99.90;;;;;;5025138;28;20299;-87
2021/10/18 12:28:29;;;;;;;21.03;15.57;;;14.60;99.90;;;;;;5012955;28;20230;-86
2021/10/18 12:30:59;;;;;;;22.37;15.93;;;14.50;99.90;;;;;;5024832;28;20217;-87
2021/10/18 12:33:39;;;;;;;19.47;15.00;;;14.50;99.90;;;;;;5021254;28;20217;-87
2021/10/18 12:36:06;;;;;;;22.57;15.50;;;14.50;99.90;;;;;;5018164;28;20203;-86
2021/10/18 12:38:36;;;;;;;20.23;15.47;;;14.50;99.90;;;;;;5013352;28;20214;-88
2021/10/18 12:41:12;;;;;;;20.77;15.37;;;14.50;99.90;;;;;;5011414;28;20215;-88
2021/10/18 12:43:39;;;;;;;18.40;15.73;;;14.50;99.90;;;;;;5023776;28;20219;-87
2021/10/18 12:46:21;;;;;;;20.07;15.93;;;14.50;99.90;;;;;;5017668;28;20195;-88
2021/10/18 12:49:00;;;;;;;18.80;15.43;;;14.60;99.90;;;;;;5024797;28;20198;-89
2021/10/18 12:51:42;;;;;;;19.97;15.47;;;14.60;99.90;;;;;;5015618;28;20207;-88
2021/10/18 12:54:21;;;;;;;19.63;15.15;;;14.70;99.90;;;;;;5025550;28;20685;-89
2021/10/18 12:57:07;;;;;;;18.77;14.47;;;14.80;99.90;;;;;;5021502;28;20538;-89
2021/10/18 12:59:36;;;;;;;19.33;15.10;;;15.00;99.90;;;;;;5013089;28;20203;-83
2021/10/18 13:02:21;;;;;;;21.40;14.15;;;15.10;99.90;;;;;;5015482;28;20217;-85
2021/10/18 13:05:16;;;;;;;20.08;15.10;;;15.20;99.90;;;;;;5020155;28;20246;-88
2021/10/18 13:07:46;;;;;;;19.80;13.30;;;15.20;99.90;;;;;;5016879;28;20206;-86
2021/10/18 13:10:15;;;;;;;20.10;14.25;;;15.20;99.90;;;;;;5016229;28;20211;-89
2021/10/18 13:12:46;;;;;;;17.73;13.60;;;15.20;99.90;;;;;;5016911;28;20230;-86
2021/10/18 13:15:16;;;;;;;16.47;12.97;;;15.20;99.90;;;;;;5009114;28;20242;-85
2021/10/18 13:17:43;;;;;;;17.13;12.90;;;15.10;99.90;;;;;;5009780;28;20628;-85
2021/10/18 13:20:11;;;;;;;19.00;13.33;;;15.00;99.90;;;;;;5024433;28;20206;-85
2021/10/18 13:22:40;;;;;;;21.23;13.48;;;15.00;99.90;;;;;;5017392;28;20233;-86
2021/10/18 13:25:09;;;;;;;18.63;13.38;;;14.90;99.90;;;;;;5021840;28;20245;-84
2021/10/18 13:27:38;;;;;;;21.60;12.97;;;14.90;99.90;;;;;;5013798;28;20239;-91
2021/10/18 13:30:08;;;;;;;17.50;12.77;;;14.90;99.90;;;;;;5019104;28;20620;-86
2021/10/18 13:32:35;;;;;;;17.55;13.48;;;14.80;99.90;;;;;;5011657;28;20215;-87
2021/10/18 13:35:03;;;;;;;16.35;13.60;;;14.80;99.90;;;;;;5015451;28;20239;-87
2021/10/18 13:37:30;;;;;;;17.00;14.02;;;14.80;99.90;;;;;;5016134;28;20219;-88
2021/10/18 13:39:56;;;;;;;16.48;13.30;;;14.80;99.90;;;;;;5021326;28;20214;-88
2021/10/18 13:42:23;;;;;;;16.63;13.23;;;14.80;99.90;;;;;;5019268;28;20218;-86
2021/10/18 13:44:50;;;;;;;22.45;13.85;;;14.80;99.90;;;;;;5017352;28;20214;-87
2021/10/18 13:47:19;;;;;;;18.17;12.70;;;14.70;99.90;;;;;;5016049;28;20203;-86
2021/10/18 13:49:46;;;;;;;18.70;13.97;;;14.80;99.90;;;;;;5018465;28;20207;-86
2021/10/18 13:52:13;;;;;;;22.27;13.73;;;14.80;99.90;;;;;;5019407;28;20214;-86